Archival Weather

DuPage County

West Chicago, Illinois (KDPA)

Report from: Thursday, December 7, 2023 12:52 AM CST
Current time: Wednesday, April 24, 2024 1:29 PM CDT

Current weather – Weather history – Daily summaries
Weather forecast

Temperature2.8°C (37.0°F)
Wind chill-2.8°C (27.0°F)
Dew point-0.6°C (30.9°F)
Winds 16 kts (8.2 m/s, 18.4 mph) South-Southwest (210°)
Peak wind 27 kts (13.9 m/s, 31.1 mph) South-Southwest (210°) at 06:24
Visibility10 mi. (16.1 km)
Clouds Sky clear
Altimeter29.94 in.Hg (1014 mB)
Relative humidity78 %
Density altitude-1,435 ft. (-437 m)
Sea-level pressure101.5 kPa (1015 mB, 29.96 in.Hg)
Remarks Automated weather observing station with precipitation discriminator
Flight conditions Visual Meteorological Conditions
Raw dataKDPA 070652Z 21016KT 10SM CLR 03/M01 A2994 RMK AO2 PK WND 21027/0624 SLP145 T00281006
An error has occurred. This application may no longer respond until reloaded. Reload 🗙